Watkins, Minnesota
Current Conditions -  °F | °C
As of 11:12 AM on Sunday 23 Nov 2014 (Local Time) from KLJF Reporting Station
Light Rain Light Rain  
Wind Chill: 35°   Ceiling: 3600
Heat Index: 39°   Visibility: 10mi
Dew Point: 37°   Wind: 6mph
Humidity: 93%   Direction: 300°WNW
Pressure: 29.45"   Gusts: NA
Location:  45.32°N, 94.41°W
Report Text: KLJF 231712Z AUTO 30005KT 10SM -RA SCT026 BKN036 OVC048 04/03 A2945 RMK AO2 P0001
Loading
Personal Weather Stations






























Interactive Weather Map New forecast layout! Learn more

10-Day Weather Forecast

Advertisements
Track Severe Weather on mobile